Time;durP1;ratioP1;P1;durP2;ratioP2;P2;SDS_P1;SDS_P2;PMS_P1;PMS_P2;Temp;Humidity;BMP_temperature;BMP_pressure;BME280_temperature;BME280_humidity;BME280_pressure;Samples;Min_cycle;Max_cycle;Signal;HPM_P1;HPM_P2
2023/10/03 00:00:48;;;;;;;7.15;3.90;;;;;;;;;;2105090;28;20016;-65
2023/10/03 00:02:07;;;;;;;8.23;3.83;;;;;;;;;;2104933;28;20033;-65
2023/10/03 00:03:26;;;;;;;8.80;4.30;;;;;;;;;;2100350;28;20028;-65
2023/10/03 00:04:46;;;;;;;7.95;4.32;;;;;;;;;;2102647;28;20020;-65
2023/10/03 00:06:05;;;;;;;10.55;3.83;;;;;;;;;;2102658;28;20032;-65
2023/10/03 00:07:24;;;;;;;10.27;4.22;;;;;;;;;;2103706;28;20028;-65
2023/10/03 00:08:45;;;;;;;9.60;4.38;;;;;;;;;;2105153;28;20028;-65
2023/10/03 00:10:05;;;;;;;9.98;4.50;;;;;;;;;;2104987;28;20032;-66
2023/10/03 00:11:24;;;;;;;14.98;3.72;;;;;;;;;;2102372;28;20501;-65
2023/10/03 00:12:44;;;;;;;9.07;4.38;;;;;;;;;;2100996;28;20115;-65
2023/10/03 00:14:07;;;;;;;10.93;3.88;;;;;;;;;;2104489;28;20020;-65
2023/10/03 00:15:27;;;;;;;8.35;3.78;;;;;;;;;;2104613;28;20032;-65
2023/10/03 00:16:46;;;;;;;12.90;4.70;;;;;;;;;;2102789;28;20028;-65
2023/10/03 00:18:05;;;;;;;6.95;3.40;;;;;;;;;;2104111;28;20084;-65
2023/10/03 00:19:24;;;;;;;10.43;5.15;;;;;;;;;;2106043;28;20025;-65
2023/10/03 00:20:43;;;;;;;6.60;3.97;;;;;;;;;;2105525;28;20028;-65
2023/10/03 00:22:03;;;;;;;12.95;4.68;;;;;;;;;;2103619;28;20028;-65
2023/10/03 00:23:22;;;;;;;8.73;4.30;;;;;;;;;;2102673;28;20078;-65
2023/10/03 00:24:41;;;;;;;8.30;3.78;;;;;;;;;;2103917;28;20416;-65
2023/10/03 00:26:00;;;;;;;10.63;4.95;;;;;;;;;;2105074;28;20115;-65
2023/10/03 00:27:19;;;;;;;9.18;3.92;;;;;;;;;;2104160;28;20036;-65
2023/10/03 00:28:37;;;;;;;9.82;4.05;;;;;;;;;;2103859;28;20028;-65
2023/10/03 00:29:56;;;;;;;9.88;4.57;;;;;;;;;;2103003;28;20042;-65
2023/10/03 00:31:15;;;;;;;10.38;4.00;;;;;;;;;;2104496;28;20032;-65
2023/10/03 00:32:34;;;;;;;8.85;3.88;;;;;;;;;;2102712;28;20024;-65
2023/10/03 00:33:53;;;;;;;12.93;4.63;;;;;;;;;;2104571;28;20051;-65
2023/10/03 00:35:14;;;;;;;7.88;4.20;;;;;;;;;;2104356;28;20032;-65
2023/10/03 00:36:33;;;;;;;8.07;4.22;;;;;;;;;;2104656;28;20481;-65
2023/10/03 00:37:53;;;;;;;10.45;4.40;;;;;;;;;;2101137;28;20044;-65
2023/10/03 00:39:14;;;;;;;14.10;5.18;;;;;;;;;;2105898;28;20036;-65
2023/10/03 00:40:34;;;;;;;8.68;4.35;;;;;;;;;;2103379;28;20024;-65
2023/10/03 00:41:53;;;;;;;7.35;4.00;;;;;;;;;;2103818;28;20028;-65
2023/10/03 00:43:12;;;;;;;10.23;4.43;;;;;;;;;;2103587;28;20405;-65
2023/10/03 00:44:31;;;;;;;10.10;4.85;;;;;;;;;;2103721;28;20400;-65
2023/10/03 00:45:51;;;;;;;10.85;4.85;;;;;;;;;;2103931;28;20039;-65
2023/10/03 00:47:10;;;;;;;12.15;5.15;;;;;;;;;;2103037;28;20021;-65
2023/10/03 00:48:29;;;;;;;13.75;4.22;;;;;;;;;;2103692;28;20020;-65
2023/10/03 00:49:48;;;;;;;15.43;5.40;;;;;;;;;;2103535;28;20167;-65
2023/10/03 00:51:07;;;;;;;8.23;4.72;;;;;;;;;;2103791;28;20504;-65
2023/10/03 00:52:27;;;;;;;10.85;5.03;;;;;;;;;;2104502;28;20032;-65
2023/10/03 00:53:47;;;;;;;10.10;4.93;;;;;;;;;;2102126;28;20024;-65
2023/10/03 00:55:06;;;;;;;12.70;4.70;;;;;;;;;;2103928;28;20028;-65
2023/10/03 00:56:25;;;;;;;10.23;4.88;;;;;;;;;;2104735;28;20020;-65
2023/10/03 00:57:44;;;;;;;12.77;4.47;;;;;;;;;;2105079;28;20111;-65
2023/10/03 00:59:03;;;;;;;8.63;4.63;;;;;;;;;;2104857;28;20036;-65
2023/10/03 01:00:25;;;;;;;10.70;4.22;;;;;;;;;;2104877;28;20392;-65
2023/10/03 01:01:46;;;;;;;12.10;4.93;;;;;;;;;;2103742;28;20086;-65
2023/10/03 01:03:09;;;;;;;14.05;5.93;;;;;;;;;;2104023;28;20046;-65
2023/10/03 01:04:31;;;;;;;14.25;6.10;;;;;;;;;;2104493;28;20032;-65
2023/10/03 01:05:53;;;;;;;10.45;5.15;;;;;;;;;;2104882;28;20051;-65
2023/10/03 01:07:12;;;;;;;14.07;4.70;;;;;;;;;;2104591;28;20036;-65
2023/10/03 01:08:32;;;;;;;11.45;5.28;;;;;;;;;;2102369;28;20032;-66
2023/10/03 01:09:53;;;;;;;7.85;5.10;;;;;;;;;;2104835;28;20024;-65
2023/10/03 01:11:15;;;;;;;8.32;4.53;;;;;;;;;;2104547;28;20024;-65
2023/10/03 01:12:35;;;;;;;13.98;5.10;;;;;;;;;;2104171;28;20032;-65
2023/10/03 01:13:59;;;;;;;11.20;5.18;;;;;;;;;;2103075;28;20028;-65
2023/10/03 01:15:22;;;;;;;11.48;5.05;;;;;;;;;;2102163;28;20028;-65
2023/10/03 01:16:41;;;;;;;;;;;;;;;;;;2103931;28;20025;-66
2023/10/03 01:18:02;;;;;;;11.80;5.53;;;;;;;;;;2103731;28;19912;-65
2023/10/03 01:19:25;;;;;;;17.90;5.35;;;;;;;;;;2104312;28;20449;-65
2023/10/03 01:20:48;;;;;;;9.32;5.05;;;;;;;;;;2102623;28;20028;-65
2023/10/03 01:22:10;;;;;;;;;;;;;;;;;;2101698;28;20032;-65
2023/10/03 01:23:39;;;;;;;9.18;4.55;;;;;;;;;;2103451;28;20281;-65
2023/10/03 01:24:59;;;;;;;12.55;5.13;;;;;;;;;;2103324;28;20059;-65
2023/10/03 01:26:20;;;;;;;8.82;4.70;;;;;;;;;;2102840;28;20508;-65
2023/10/03 01:27:40;;;;;;;15.02;5.50;;;;;;;;;;2101893;28;20024;-65
2023/10/03 01:28:59;;;;;;;19.50;5.93;;;;;;;;;;2103538;28;20020;-65
2023/10/03 01:30:18;;;;;;;11.15;5.10;;;;;;;;;;2104011;28;20016;-65
2023/10/03 01:31:36;;;;;;;10.77;4.97;;;;;;;;;;2103902;28;20036;-65
2023/10/03 01:32:56;;;;;;;14.23;5.05;;;;;;;;;;2105175;28;20032;-65
2023/10/03 01:34:15;;;;;;;11.95;5.43;;;;;;;;;;2096526;28;20032;-65
2023/10/03 01:35:34;;;;;;;13.15;5.72;;;;;;;;;;2099466;28;20506;-65
2023/10/03 01:36:54;;;;;;;10.63;5.10;;;;;;;;;;2103073;28;20024;-65
2023/10/03 01:38:14;;;;;;;11.32;5.57;;;;;;;;;;2102260;28;20405;-65
2023/10/03 01:39:33;;;;;;;15.13;5.78;;;;;;;;;;2103664;28;20032;-66
2023/10/03 01:40:52;;;;;;;9.85;5.78;;;;;;;;;;2101634;28;20071;-66
2023/10/03 01:42:11;;;;;;;7.22;5.03;;;;;;;;;;2098603;28;20037;-65
2023/10/03 01:43:30;;;;;;;16.80;5.90;;;;;;;;;;2102814;28;20040;-65
2023/10/03 01:44:50;;;;;;;16.17;5.82;;;;;;;;;;2101420;28;20027;-65
2023/10/03 01:46:09;;;;;;;16.42;5.88;;;;;;;;;;2104078;28;20024;-65
2023/10/03 01:47:29;;;;;;;15.40;5.63;;;;;;;;;;2102367;28;20040;-65
2023/10/03 01:48:48;;;;;;;13.07;5.10;;;;;;;;;;2103446;28;20016;-65
2023/10/03 01:50:08;;;;;;;12.23;6.10;;;;;;;;;;2103322;28;20047;-65
2023/10/03 01:51:27;;;;;;;10.88;5.45;;;;;;;;;;2104218;28;20020;-66
2023/10/03 01:52:46;;;;;;;10.23;4.97;;;;;;;;;;2102009;28;20024;-65
2023/10/03 01:54:05;;;;;;;9.20;5.50;;;;;;;;;;2102105;28;20036;-65
2023/10/03 01:55:25;;;;;;;13.20;5.55;;;;;;;;;;2102122;28;20485;-65
2023/10/03 01:56:44;;;;;;;12.77;5.28;;;;;;;;;;2100371;28;20751;-65
2023/10/03 01:58:03;;;;;;;13.70;5.63;;;;;;;;;;2097468;28;20028;-65
2023/10/03 01:59:23;;;;;;;12.07;5.70;;;;;;;;;;2101241;28;20384;-65
2023/10/03 02:00:42;;;;;;;14.52;5.40;;;;;;;;;;2104755;28;20040;-65
2023/10/03 02:02:03;;;;;;;13.02;5.68;;;;;;;;;;2103029;28;20025;-65
2023/10/03 02:03:23;;;;;;;12.18;5.80;;;;;;;;;;2102489;28;20020;-65
2023/10/03 02:04:42;;;;;;;17.58;6.32;;;;;;;;;;2102370;28;20025;-65
2023/10/03 02:06:02;;;;;;;12.68;5.30;;;;;;;;;;2104248;28;20024;-66
2023/10/03 02:07:21;;;;;;;12.93;5.45;;;;;;;;;;2101781;28;20057;-65
2023/10/03 02:08:40;;;;;;;9.70;5.13;;;;;;;;;;2103315;28;20099;-65
2023/10/03 02:10:01;;;;;;;14.57;5.50;;;;;;;;;;2104146;28;20020;-65
2023/10/03 02:11:26;;;;;;;7.97;5.13;;;;;;;;;;2101375;28;20689;-65
2023/10/03 02:12:51;;;;;;;18.50;5.60;;;;;;;;;;2103131;28;20032;-65
2023/10/03 02:14:11;;;;;;;14.57;5.18;;;;;;;;;;2101678;28;20039;-65
2023/10/03 02:15:30;;;;;;;13.05;5.70;;;;;;;;;;2103427;28;20024;-65
2023/10/03 02:16:51;;;;;;;16.15;5.68;;;;;;;;;;2096042;28;20417;-65
2023/10/03 02:18:12;;;;;;;14.80;6.05;;;;;;;;;;2104109;28;20392;-65
2023/10/03 02:19:31;;;;;;;15.07;6.43;;;;;;;;;;2104921;28;20024;-65
2023/10/03 02:20:51;;;;;;;13.63;6.20;;;;;;;;;;2101237;28;20024;-65
2023/10/03 02:22:12;;;;;;;11.70;6.03;;;;;;;;;;2100841;28;20021;-65
2023/10/03 02:23:32;;;;;;;8.60;5.10;;;;;;;;;;2104647;28;20040;-65
2023/10/03 02:24:52;;;;;;;12.90;5.72;;;;;;;;;;2102057;28;20052;-65
2023/10/03 02:26:11;;;;;;;12.65;5.57;;;;;;;;;;2100236;28;20024;-65
2023/10/03 02:27:30;;;;;;;14.00;5.20;;;;;;;;;;2103204;28;20024;-65
2023/10/03 02:28:50;;;;;;;14.77;5.38;;;;;;;;;;2101303;28;20020;-66
2023/10/03 02:30:12;;;;;;;11.18;5.18;;;;;;;;;;2096377;28;20143;-65
2023/10/03 02:31:33;;;;;;;11.02;5.20;;;;;;;;;;2097318;28;20033;-65
2023/10/03 02:32:53;;;;;;;10.38;5.55;;;;;;;;;;2102767;28;20103;-65
2023/10/03 02:34:12;;;;;;;9.60;5.75;;;;;;;;;;2103091;28;20032;-65
2023/10/03 02:35:31;;;;;;;10.30;5.55;;;;;;;;;;2101478;28;20512;-65
2023/10/03 02:36:51;;;;;;;13.45;5.57;;;;;;;;;;2103783;28;20028;-65
2023/10/03 02:38:24;;;;;;;15.60;5.18;;;;;;;;;;2102816;28;20031;-65
2023/10/03 02:39:43;;;;;;;12.93;5.55;;;;;;;;;;2104003;28;20099;-65
2023/10/03 02:41:05;;;;;;;8.75;5.40;;;;;;;;;;2103979;28;20013;-65
2023/10/03 02:42:26;;;;;;;13.65;5.78;;;;;;;;;;2104279;28;20036;-66
2023/10/03 02:43:48;;;;;;;10.77;5.60;;;;;;;;;;2101994;28;20029;-66
2023/10/03 02:45:08;;;;;;;12.05;5.13;;;;;;;;;;2102730;28;20020;-65
2023/10/03 02:46:30;;;;;;;15.10;5.88;;;;;;;;;;2098088;28;20031;-64
2023/10/03 02:47:51;;;;;;;13.30;5.03;;;;;;;;;;2096392;28;20122;-65
2023/10/03 02:49:10;;;;;;;11.95;5.57;;;;;;;;;;2102550;28;20016;-65
2023/10/03 02:50:32;;;;;;;13.65;5.15;;;;;;;;;;2101338;28;20024;-65
2023/10/03 02:51:51;;;;;;;9.85;5.05;;;;;;;;;;2101641;28;20020;-65
2023/10/03 02:53:13;;;;;;;17.02;5.40;;;;;;;;;;2102232;28;21046;-65
2023/10/03 02:54:32;;;;;;;11.90;5.80;;;;;;;;;;2100388;28;20447;-65
2023/10/03 02:55:52;;;;;;;14.88;5.53;;;;;;;;;;2103723;28;20103;-65
2023/10/03 02:57:11;;;;;;;16.67;5.45;;;;;;;;;;2103202;28;20040;-65
2023/10/03 02:58:30;;;;;;;9.80;5.20;;;;;;;;;;2103275;28;20032;-65
2023/10/03 02:59:49;;;;;;;13.65;5.22;;;;;;;;;;2100360;28;20159;-65
2023/10/03 03:01:09;;;;;;;11.63;5.85;;;;;;;;;;2100681;28;20028;-65
2023/10/03 03:02:28;;;;;;;12.75;5.55;;;;;;;;;;2099997;28;20481;-65
2023/10/03 03:03:48;;;;;;;14.88;6.45;;;;;;;;;;2102544;28;20040;-65
2023/10/03 03:05:11;;;;;;;13.70;5.65;;;;;;;;;;2103322;28;20480;-66
2023/10/03 03:06:31;;;;;;;18.35;5.47;;;;;;;;;;2103622;28;20118;-65
2023/10/03 03:07:57;;;;;;;10.65;6.13;;;;;;;;;;2102893;28;20400;-65
2023/10/03 03:09:23;;;;;;;15.10;5.75;;;;;;;;;;2103250;28;20035;-65
2023/10/03 03:10:43;;;;;;;14.77;6.13;;;;;;;;;;2101134;28;20036;-65
2023/10/03 03:12:06;;;;;;;14.98;5.68;;;;;;;;;;2101152;28;20032;-66
2023/10/03 03:13:27;;;;;;;15.07;6.28;;;;;;;;;;2102245;28;20473;-65
2023/10/03 03:14:46;;;;;;;12.10;5.95;;;;;;;;;;2103734;28;20032;-65
2023/10/03 03:16:06;;;;;;;15.10;5.88;;;;;;;;;;2104305;28;20036;-65
2023/10/03 03:17:25;;;;;;;10.40;5.85;;;;;;;;;;2100223;28;21983;-65
2023/10/03 03:18:46;;;;;;;21.48;6.32;;;;;;;;;;2104653;28;20035;-65
2023/10/03 03:20:07;;;;;;;12.10;5.95;;;;;;;;;;2103885;28;20115;-65
2023/10/03 03:21:26;;;;;;;21.27;6.90;;;;;;;;;;2104647;28;20492;-65
2023/10/03 03:22:50;;;;;;;14.15;5.85;;;;;;;;;;2101622;28;20107;-65
2023/10/03 03:24:10;;;;;;;16.35;6.50;;;;;;;;;;2101471;28;20036;-65
2023/10/03 03:25:36;;;;;;;12.10;5.57;;;;;;;;;;2103310;28;20346;-65
2023/10/03 03:26:58;;;;;;;10.32;5.95;;;;;;;;;;2103575;28;20032;-64
2023/10/03 03:28:23;;;;;;;12.80;6.10;;;;;;;;;;2102811;28;20119;-66
2023/10/03 03:30:22;;;;;;;13.40;6.30;;;;;;;;;;2102138;28;20028;-65
2023/10/03 03:32:41;;;;;;;12.43;6.22;;;;;;;;;;2101659;28;20032;-65
2023/10/03 03:34:01;;;;;;;10.48;5.97;;;;;;;;;;2099122;28;20024;-65
2023/10/03 03:35:23;;;;;;;11.27;5.57;;;;;;;;;;2103931;28;20389;-65
2023/10/03 03:36:46;;;;;;;12.32;5.72;;;;;;;;;;2103368;28;20557;-65
2023/10/03 03:38:06;;;;;;;14.45;6.53;;;;;;;;;;2101630;28;20507;-65
2023/10/03 03:39:26;;;;;;;11.85;5.75;;;;;;;;;;2101498;28;20415;-65
2023/10/03 03:40:46;;;;;;;11.02;6.40;;;;;;;;;;2103003;28;20067;-66
2023/10/03 03:42:06;;;;;;;12.50;6.22;;;;;;;;;;2102464;28;20020;-65
2023/10/03 03:43:25;;;;;;;12.40;5.93;;;;;;;;;;2102412;28;20115;-65
2023/10/03 03:44:45;;;;;;;10.13;5.88;;;;;;;;;;2104178;28;20428;-65
2023/10/03 03:46:05;;;;;;;14.02;5.55;;;;;;;;;;2103086;28;20032;-65
2023/10/03 03:47:24;;;;;;;10.40;5.65;;;;;;;;;;2102596;28;20574;-65
2023/10/03 03:48:43;;;;;;;13.38;5.90;;;;;;;;;;2100737;28;20028;-65
2023/10/03 03:50:10;;;;;;;15.75;5.93;;;;;;;;;;2101712;28;20020;-64
2023/10/03 03:51:30;;;;;;;16.90;6.07;;;;;;;;;;2101020;28;20111;-65
2023/10/03 03:52:49;;;;;;;7.22;5.70;;;;;;;;;;2102094;28;20277;-65
2023/10/03 03:54:12;;;;;;;9.45;5.43;;;;;;;;;;2101073;28;20057;-65
2023/10/03 03:55:31;;;;;;;17.65;5.60;;;;;;;;;;2102733;28;20028;-65
2023/10/03 03:56:50;;;;;;;14.45;5.65;;;;;;;;;;2101384;28;20024;-65
2023/10/03 03:58:17;;;;;;;11.23;5.50;;;;;;;;;;2101921;28;20036;-65
2023/10/03 03:59:36;;;;;;;8.93;4.90;;;;;;;;;;2105205;28;20028;-65
2023/10/03 04:00:56;;;;;;;11.57;5.80;;;;;;;;;;2100551;28;20393;-65
2023/10/03 04:02:14;;;;;;;14.60;5.80;;;;;;;;;;2102071;28;20103;-65
2023/10/03 04:03:34;;;;;;;13.57;5.13;;;;;;;;;;2101608;28;20603;-65
2023/10/03 04:04:54;;;;;;;16.90;5.97;;;;;;;;;;2103798;28;20031;-65
2023/10/03 04:06:13;;;;;;;9.95;5.28;;;;;;;;;;2104321;28;20032;-65
2023/10/03 04:07:33;;;;;;;12.98;5.63;;;;;;;;;;2101923;28;20029;-65
2023/10/03 04:08:52;;;;;;;10.43;5.47;;;;;;;;;;2103440;28;20119;-65
2023/10/03 04:10:13;;;;;;;13.82;5.65;;;;;;;;;;2098868;28;20115;-65
2023/10/03 04:11:32;;;;;;;10.45;5.32;;;;;;;;;;2101838;28;20028;-65
2023/10/03 04:12:52;;;;;;;12.77;5.35;;;;;;;;;;2101382;28;20028;-66
2023/10/03 04:14:11;;;;;;;14.80;5.95;;;;;;;;;;2103288;28;20027;-65
2023/10/03 04:15:31;;;;;;;9.35;5.72;;;;;;;;;;2099796;28;20020;-65
2023/10/03 04:16:51;;;;;;;12.82;5.45;;;;;;;;;;2101147;28;20029;-65
2023/10/03 04:18:10;;;;;;;14.68;6.30;;;;;;;;;;2103137;28;20055;-65
2023/10/03 04:19:29;;;;;;;12.20;5.57;;;;;;;;;;2102973;28;20032;-64
2023/10/03 04:20:48;;;;;;;14.73;5.97;;;;;;;;;;2103107;28;20028;-64
2023/10/03 04:22:09;;;;;;;14.43;6.45;;;;;;;;;;2102322;28;20036;-65
2023/10/03 04:23:28;;;;;;;12.27;4.85;;;;;;;;;;2102152;28;20222;-65
2023/10/03 04:24:47;;;;;;;20.63;5.93;;;;;;;;;;2104899;28;20017;-65
2023/10/03 04:26:07;;;;;;;10.55;5.47;;;;;;;;;;2104005;28;20019;-65
2023/10/03 04:27:26;;;;;;;14.30;5.88;;;;;;;;;;2102931;28;20036;-65
2023/10/03 04:28:45;;;;;;;12.77;6.22;;;;;;;;;;2104214;28;20039;-65
2023/10/03 04:30:05;;;;;;;12.18;4.95;;;;;;;;;;2105131;28;20168;-65
2023/10/03 04:31:24;;;;;;;12.13;5.45;;;;;;;;;;2104583;28;20036;-64
2023/10/03 04:32:43;;;;;;;10.75;4.90;;;;;;;;;;2106644;28;20033;-64
2023/10/03 04:34:03;;;;;;;14.45;5.10;;;;;;;;;;2102056;28;20020;-65
2023/10/03 04:35:22;;;;;;;12.13;5.57;;;;;;;;;;2101081;28;20033;-64
2023/10/03 04:36:41;;;;;;;11.15;5.18;;;;;;;;;;2100965;28;20032;-64
2023/10/03 04:38:04;;;;;;;10.88;5.55;;;;;;;;;;2102291;28;20362;-64
2023/10/03 04:39:23;;;;;;;11.98;5.93;;;;;;;;;;2102551;28;20517;-63
2023/10/03 04:40:43;;;;;;;8.77;4.88;;;;;;;;;;2098679;28;20504;-63
2023/10/03 04:42:05;;;;;;;12.70;5.97;;;;;;;;;;2098971;28;20035;-63
2023/10/03 04:43:27;;;;;;;12.43;5.50;;;;;;;;;;2102242;28;20502;-65
2023/10/03 04:44:46;;;;;;;12.67;5.70;;;;;;;;;;2102861;28;20060;-64
2023/10/03 04:46:05;;;;;;;13.10;5.50;;;;;;;;;;2090486;28;20281;-65
2023/10/03 04:47:27;;;;;;;12.48;5.53;;;;;;;;;;2101752;28;20063;-64
2023/10/03 04:48:46;;;;;;;11.82;5.80;;;;;;;;;;2101458;28;20020;-65
2023/10/03 04:50:05;;;;;;;12.95;5.28;;;;;;;;;;2096215;28;20037;-66
2023/10/03 04:51:24;;;;;;;10.75;5.47;;;;;;;;;;2100224;28;20493;-64
2023/10/03 04:52:43;;;;;;;14.75;5.97;;;;;;;;;;2103877;28;20032;-64
2023/10/03 04:54:02;;;;;;;11.73;5.45;;;;;;;;;;2098630;28;20397;-64
2023/10/03 04:55:22;;;;;;;11.73;5.40;;;;;;;;;;2103998;28;20020;-64
2023/10/03 04:56:41;;;;;;;10.52;5.63;;;;;;;;;;2104711;28;20057;-64
2023/10/03 04:57:59;;;;;;;14.18;6.35;;;;;;;;;;2101420;28;20408;-63
2023/10/03 04:59:20;;;;;;;12.93;5.63;;;;;;;;;;2101849;28;20040;-64
2023/10/03 05:00:40;;;;;;;10.00;5.20;;;;;;;;;;2103507;28;20064;-64
2023/10/03 05:02:01;;;;;;;13.35;5.60;;;;;;;;;;2103646;28;20028;-64
2023/10/03 05:03:21;;;;;;;12.88;5.97;;;;;;;;;;2102263;28;20424;-66
2023/10/03 05:04:41;;;;;;;12.30;5.07;;;;;;;;;;2101256;28;20060;-65
2023/10/03 05:06:01;;;;;;;12.43;5.85;;;;;;;;;;2102900;28;20036;-64
2023/10/03 05:07:20;;;;;;;12.27;5.85;;;;;;;;;;2103014;28;20028;-63
2023/10/03 05:08:39;;;;;;;14.60;5.88;;;;;;;;;;2102884;28;20028;-64
2023/10/03 05:09:58;;;;;;;10.38;5.43;;;;;;;;;;2103218;28;20028;-64
2023/10/03 05:11:18;;;;;;;10.77;5.60;;;;;;;;;;2104007;28;20198;-64
2023/10/03 05:12:37;;;;;;;12.18;5.05;;;;;;;;;;2105670;28;20028;-64
2023/10/03 05:13:57;;;;;;;11.15;5.43;;;;;;;;;;2105824;28;20031;-64
2023/10/03 05:15:17;;;;;;;14.20;6.30;;;;;;;;;;2105083;28;20048;-63
2023/10/03 05:16:36;;;;;;;18.27;5.38;;;;;;;;;;2102982;28;20504;-64
2023/10/03 05:17:56;;;;;;;11.35;5.85;;;;;;;;;;2102295;28;20036;-63
2023/10/03 05:19:15;;;;;;;10.35;5.65;;;;;;;;;;2104285;28;20107;-64
2023/10/03 05:20:42;;;;;;;10.43;6.00;;;;;;;;;;2104453;28;20032;-65
2023/10/03 05:22:02;;;;;;;10.15;5.65;;;;;;;;;;2103710;28;20028;-64
2023/10/03 05:23:21;;;;;;;7.47;4.88;;;;;;;;;;2102897;28;20040;-64
2023/10/03 05:24:40;;;;;;;11.15;5.55;;;;;;;;;;2104185;28;20032;-64
2023/10/03 05:26:02;;;;;;;9.35;5.47;;;;;;;;;;2103329;28;20044;-64
2023/10/03 05:27:21;;;;;;;11.43;5.03;;;;;;;;;;2101953;28;20036;-64
2023/10/03 05:28:40;;;;;;;11.07;5.50;;;;;;;;;;2100850;28;20459;-64
2023/10/03 05:30:01;;;;;;;10.88;5.80;;;;;;;;;;2103313;28;20387;-64
2023/10/03 05:31:21;;;;;;;16.60;5.72;;;;;;;;;;2102171;28;20024;-64
2023/10/03 05:32:42;;;;;;;9.15;5.70;;;;;;;;;;2102275;28;20036;-64
2023/10/03 05:34:02;;;;;;;17.73;5.70;;;;;;;;;;2102437;28;20067;-65
2023/10/03 05:35:21;;;;;;;9.35;5.35;;;;;;;;;;2098238;28;20149;-65
2023/10/03 05:36:40;;;;;;;12.32;5.07;;;;;;;;;;2099277;28;20031;-67
2023/10/03 05:37:59;;;;;;;9.70;5.25;;;;;;;;;;2104180;28;20040;-66
2023/10/03 05:39:18;;;;;;;13.57;5.93;;;;;;;;;;2101283;28;20040;-65
2023/10/03 05:40:38;;;;;;;8.07;5.60;;;;;;;;;;2102817;28;20040;-65
2023/10/03 05:41:57;;;;;;;14.30;5.25;;;;;;;;;;2101153;28;20390;-65
2023/10/03 05:43:16;;;;;;;16.63;5.80;;;;;;;;;;2100741;28;20032;-63
2023/10/03 05:44:37;;;;;;;11.13;5.93;;;;;;;;;;2102640;28;20028;-64
2023/10/03 05:45:56;;;;;;;10.25;5.65;;;;;;;;;;2100694;28;20488;-64
2023/10/03 05:47:15;;;;;;;12.90;5.78;;;;;;;;;;2101983;28;20558;-64
2023/10/03 05:48:34;;;;;;;12.23;4.90;;;;;;;;;;2099224;28;20182;-63
2023/10/03 05:49:53;;;;;;;14.80;6.03;;;;;;;;;;2101211;28;20036;-64
2023/10/03 05:51:12;;;;;;;10.93;5.70;;;;;;;;;;2100855;28;20888;-64
2023/10/03 05:52:32;;;;;;;7.78;5.22;;;;;;;;;;2102858;28;20397;-64
2023/10/03 05:53:51;;;;;;;10.85;5.88;;;;;;;;;;2099148;28;20036;-64
2023/10/03 05:55:10;;;;;;;11.00;5.32;;;;;;;;;;2101311;28;20053;-64
2023/10/03 05:56:29;;;;;;;15.93;5.70;;;;;;;;;;2102729;28;20036;-63
2023/10/03 05:57:48;;;;;;;12.70;6.03;;;;;;;;;;2103089;28;20955;-64
2023/10/03 05:59:07;;;;;;;13.35;5.93;;;;;;;;;;2099962;28;20028;-64
2023/10/03 06:00:26;;;;;;;16.85;6.30;;;;;;;;;;2103701;28;20478;-66
2023/10/03 06:01:45;;;;;;;9.40;5.70;;;;;;;;;;2102981;28;20032;-66
2023/10/03 06:03:04;;;;;;;12.68;5.38;;;;;;;;;;2102647;28;20024;-66
2023/10/03 06:04:24;;;;;;;12.35;6.00;;;;;;;;;;2102574;28;20036;-66
2023/10/03 06:05:46;;;;;;;9.60;5.50;;;;;;;;;;2102273;28;20064;-65
2023/10/03 06:07:06;;;;;;;9.07;5.90;;;;;;;;;;2101429;28;20915;-66
2023/10/03 06:08:25;;;;;;;11.65;6.20;;;;;;;;;;2099539;28;20028;-65
2023/10/03 06:09:44;;;;;;;13.63;6.05;;;;;;;;;;2103917;28;20043;-66
2023/10/03 06:11:04;;;;;;;13.27;6.10;;;;;;;;;;2103950;28;20039;-66
2023/10/03 06:12:23;;;;;;;12.00;5.72;;;;;;;;;;2102189;28;20028;-66
2023/10/03 06:13:44;;;;;;;13.90;6.28;;;;;;;;;;2103475;28;20504;-67
2023/10/03 06:15:04;;;;;;;10.95;6.10;;;;;;;;;;2102864;28;20574;-64
2023/10/03 06:16:24;;;;;;;15.30;5.82;;;;;;;;;;2103755;28;20032;-65
2023/10/03 06:17:43;;;;;;;11.75;5.90;;;;;;;;;;2104686;28;20388;-65
2023/10/03 06:19:03;;;;;;;14.23;6.22;;;;;;;;;;2103096;28;20040;-66
2023/10/03 06:20:24;;;;;;;10.57;5.40;;;;;;;;;;2103313;28;20036;-66
2023/10/03 06:21:43;;;;;;;11.23;5.75;;;;;;;;;;2104832;28;20036;-65
2023/10/03 06:23:04;;;;;;;10.00;5.78;;;;;;;;;;2103977;28;20532;-65
2023/10/03 06:24:25;;;;;;;11.18;5.85;;;;;;;;;;2105339;28;20167;-65
2023/10/03 06:25:44;;;;;;;10.20;5.63;;;;;;;;;;2103830;28;20024;-65
2023/10/03 06:27:05;;;;;;;12.02;5.68;;;;;;;;;;2102722;28;20021;-65
2023/10/03 06:28:24;;;;;;;10.88;5.88;;;;;;;;;;2102631;28;20020;-63
2023/10/03 06:29:43;;;;;;;17.33;6.63;;;;;;;;;;2103384;28;20024;-65
2023/10/03 06:31:02;;;;;;;15.18;6.93;;;;;;;;;;2103885;28;20028;-64
2023/10/03 06:32:21;;;;;;;12.48;6.10;;;;;;;;;;2103548;28;20033;-66
2023/10/03 06:33:42;;;;;;;13.05;6.50;;;;;;;;;;2102234;28;20032;-64
2023/10/03 06:35:02;;;;;;;12.15;6.03;;;;;;;;;;2104812;28;20024;-65
2023/10/03 06:36:21;;;;;;;17.42;6.63;;;;;;;;;;2102755;28;20417;-65
2023/10/03 06:37:41;;;;;;;8.90;5.85;;;;;;;;;;2101992;28;20052;-65
2023/10/03 06:39:04;;;;;;;14.10;5.80;;;;;;;;;;2102828;28;20056;-66
2023/10/03 06:40:23;;;;;;;15.63;5.88;;;;;;;;;;2102340;28;20040;-65
2023/10/03 06:41:42;;;;;;;11.38;5.95;;;;;;;;;;2102722;28;20023;-65
2023/10/03 06:43:01;;;;;;;12.15;5.65;;;;;;;;;;2102633;28;20036;-65
2023/10/03 06:44:20;;;;;;;10.07;5.38;;;;;;;;;;2104387;28;20440;-65
2023/10/03 06:45:40;;;;;;;11.55;5.80;;;;;;;;;;2104090;28;20032;-65
2023/10/03 06:47:00;;;;;;;11.30;5.78;;;;;;;;;;2103734;28;20082;-65
2023/10/03 06:48:21;;;;;;;11.77;6.32;;;;;;;;;;2104639;28;20028;-65
2023/10/03 06:49:41;;;;;;;12.23;5.95;;;;;;;;;;2102936;28;20099;-64
2023/10/03 06:51:04;;;;;;;15.75;5.88;;;;;;;;;;2102287;28;20019;-65
2023/10/03 06:52:26;;;;;;;10.48;6.07;;;;;;;;;;2105170;28;20032;-65
2023/10/03 06:53:48;;;;;;;12.27;6.43;;;;;;;;;;2102677;28;20028;-63
2023/10/03 06:55:10;;;;;;;12.77;6.47;;;;;;;;;;2100336;28;20564;-64
2023/10/03 06:56:32;;;;;;;13.98;5.82;;;;;;;;;;2102727;28;20465;-64
2023/10/03 06:57:51;;;;;;;10.98;6.10;;;;;;;;;;2103162;28;20028;-65
2023/10/03 06:59:14;;;;;;;11.73;6.10;;;;;;;;;;2101946;28;20073;-63
2023/10/03 07:00:33;;;;;;;10.30;5.85;;;;;;;;;;2103643;28;20020;-64
2023/10/03 07:01:52;;;;;;;10.13;5.88;;;;;;;;;;2104280;28;20116;-64
2023/10/03 07:03:14;;;;;;;13.55;6.10;;;;;;;;;;2104326;28;20389;-64
2023/10/03 07:04:33;;;;;;;10.77;5.88;;;;;;;;;;2103177;28;20028;-66
2023/10/03 07:05:54;;;;;;;12.02;6.10;;;;;;;;;;2103438;28;20040;-64
2023/10/03 07:07:13;;;;;;;13.25;5.45;;;;;;;;;;2102847;28;20040;-64
2023/10/03 07:08:32;;;;;;;11.95;6.05;;;;;;;;;;2102439;28;20016;-64
2023/10/03 07:09:51;;;;;;;16.85;6.03;;;;;;;;;;2098906;28;20028;-64
2023/10/03 07:11:12;;;;;;;12.98;5.85;;;;;;;;;;2102415;28;20031;-64
2023/10/03 07:12:31;;;;;;;9.75;6.13;;;;;;;;;;2103488;28;20032;-63
2023/10/03 07:13:51;;;;;;;10.52;5.00;;;;;;;;;;2103106;28;20024;-64
2023/10/03 07:15:11;;;;;;;10.32;5.60;;;;;;;;;;2103901;28;20028;-64
2023/10/03 07:16:37;;;;;;;15.40;5.55;;;;;;;;;;2104013;28;20032;-63
2023/10/03 07:17:57;;;;;;;10.38;5.50;;;;;;;;;;2104788;28;20059;-65
2023/10/03 07:19:16;;;;;;;16.75;6.05;;;;;;;;;;2102799;28;20028;-64
2023/10/03 07:20:35;;;;;;;13.60;5.57;;;;;;;;;;2104098;28;20028;-64
2023/10/03 07:21:55;;;;;;;8.40;5.45;;;;;;;;;;2102769;28;20024;-64
2023/10/03 07:23:14;;;;;;;13.38;5.80;;;;;;;;;;2104224;28;20107;-64
2023/10/03 07:24:33;;;;;;;15.00;5.85;;;;;;;;;;2103524;28;20027;-65
2023/10/03 07:25:52;;;;;;;15.32;5.30;;;;;;;;;;2102192;28;20028;-65
2023/10/03 07:27:14;;;;;;;16.17;6.25;;;;;;;;;;2102886;28;20601;-64
2023/10/03 07:28:34;;;;;;;12.25;6.05;;;;;;;;;;2104236;28;20032;-64
2023/10/03 07:29:53;;;;;;;11.88;5.40;;;;;;;;;;2104383;28;20464;-64
2023/10/03 07:31:13;;;;;;;17.52;5.75;;;;;;;;;;2102973;28;20021;-64
2023/10/03 07:32:34;;;;;;;14.85;5.97;;;;;;;;;;2098069;28;20511;-64
2023/10/03 07:33:55;;;;;;;11.43;5.30;;;;;;;;;;2100834;28;20024;-64
2023/10/03 07:35:17;;;;;;;12.25;5.85;;;;;;;;;;2103896;28;20111;-66
2023/10/03 07:36:40;;;;;;;9.32;5.95;;;;;;;;;;2105304;28;20357;-64
2023/10/03 07:37:59;;;;;;;;;;;;;;;;;;2105501;28;20036;-64
2023/10/03 07:39:18;;;;;;;11.02;5.50;;;;;;;;;;2103394;28;19904;-64
2023/10/03 07:40:38;;;;;;;13.07;5.60;;;;;;;;;;2103627;28;20036;-63
2023/10/03 07:41:57;;;;;;;12.77;6.47;;;;;;;;;;2104299;28;20489;-64
2023/10/03 07:43:16;;;;;;;9.02;5.13;;;;;;;;;;2104882;28;20044;-64
2023/10/03 07:44:36;;;;;;;17.20;5.72;;;;;;;;;;2105288;28;20059;-64
2023/10/03 07:45:55;;;;;;;11.20;5.05;;;;;;;;;;2102597;28;20028;-63
2023/10/03 07:47:15;;;;;;;11.35;5.60;;;;;;;;;;2104043;28;20028;-64
2023/10/03 07:48:33;;;;;;;10.60;6.05;;;;;;;;;;2102986;28;20028;-64
2023/10/03 07:49:52;;;;;;;15.35;6.88;;;;;;;;;;2103883;28;20032;-65
2023/10/03 07:51:18;;;;;;;20.67;7.13;;;;;;;;;;2103256;28;20032;-64
2023/10/03 07:52:37;;;;;;;15.90;6.60;;;;;;;;;;2103495;28;20047;-64
2023/10/03 07:53:56;;;;;;;12.52;6.20;;;;;;;;;;2104212;28;20122;-64
2023/10/03 07:55:15;;;;;;;14.10;6.55;;;;;;;;;;2103824;28;20032;-65
2023/10/03 07:56:34;;;;;;;12.38;6.75;;;;;;;;;;2104752;28;20032;-64